Time;durP1;ratioP1;P1;durP2;ratioP2;P2;SDS_P1;SDS_P2;PMS_P1;PMS_P2;Temp;Humidity;BMP_temperature;BMP_pressure;BME280_temperature;BME280_humidity;BME280_pressure;Samples;Min_cycle;Max_cycle;Signal;HPM_P1;HPM_P2
2021/03/06 00:00:45;;;;;;;12.87;5.60;;;0.40;99.90;;;;;;5035400;28;20292;-74
2021/03/06 00:03:11;;;;;;;16.03;5.57;;;0.40;99.90;;;;;;5035162;28;20200;-74
2021/03/06 00:05:38;;;;;;;11.87;5.33;;;0.40;99.90;;;;;;5035255;28;20274;-75
2021/03/06 00:08:05;;;;;;;12.40;5.80;;;0.40;99.90;;;;;;5035470;28;20281;-74
2021/03/06 00:10:32;;;;;;;11.63;5.33;;;0.40;99.90;;;;;;5035174;28;20200;-76
2021/03/06 00:12:58;;;;;;;11.10;5.00;;;0.40;99.90;;;;;;5034787;28;20202;-75
2021/03/06 00:15:27;;;;;;;12.47;5.43;;;0.40;99.90;;;;;;5034850;28;20216;-77
2021/03/06 00:17:54;;;;;;;12.97;5.30;;;0.30;99.90;;;;;;5034891;28;20327;-74
2021/03/06 00:20:21;;;;;;;8.87;5.00;;;0.30;99.90;;;;;;5034921;28;20193;-74
2021/03/06 00:22:49;;;;;;;11.43;5.30;;;0.30;99.90;;;;;;5034926;28;20200;-75
2021/03/06 00:25:18;;;;;;;9.27;4.87;;;0.30;99.90;;;;;;5034866;28;20194;-75
2021/03/06 00:27:45;;;;;;;14.33;5.20;;;0.20;99.90;;;;;;5034844;28;20358;-74
2021/03/06 00:30:14;;;;;;;10.50;5.07;;;0.30;99.90;;;;;;5034654;28;20249;-74
2021/03/06 00:32:40;;;;;;;12.90;5.13;;;0.40;99.90;;;;;;5034754;28;20296;-75
2021/03/06 00:35:08;;;;;;;14.90;5.43;;;0.50;99.90;;;;;;5034949;28;20201;-76
2021/03/06 00:37:35;;;;;;;13.10;5.73;;;0.40;99.90;;;;;;5034604;28;20193;-77
2021/03/06 00:40:01;;;;;;;8.97;5.60;;;0.50;99.90;;;;;;5034634;28;20223;-74
2021/03/06 00:42:28;;;;;;;13.47;6.00;;;0.50;99.90;;;;;;5034570;28;20201;-74
2021/03/06 00:44:55;;;;;;;16.53;6.27;;;0.60;99.90;;;;;;5034396;28;20288;-74
2021/03/06 00:47:21;;;;;;;20.77;6.50;;;0.70;99.90;;;;;;5034801;28;20280;-76
2021/03/06 00:49:47;;;;;;;11.87;6.03;;;0.70;99.90;;;;;;5034745;28;20682;-77
2021/03/06 00:52:14;;;;;;;20.17;6.57;;;0.60;99.90;;;;;;5033514;28;20254;-76
2021/03/06 00:54:41;;;;;;;13.67;5.97;;;0.50;99.90;;;;;;5034435;28;20570;-77
2021/03/06 00:57:07;;;;;;;16.60;6.07;;;0.50;99.90;;;;;;5034129;28;20221;-77
2021/03/06 00:59:34;;;;;;;16.77;5.70;;;0.40;99.90;;;;;;5034133;28;20688;-76
2021/03/06 01:02:01;;;;;;;15.73;6.07;;;0.50;99.90;;;;;;5034324;28;20328;-77
2021/03/06 01:04:27;;;;;;;13.10;5.53;;;0.40;99.90;;;;;;5034565;28;20204;-77
2021/03/06 01:06:54;;;;;;;13.57;5.67;;;0.40;99.90;;;;;;5034270;28;20205;-76
2021/03/06 01:09:20;;;;;;;12.07;5.97;;;0.40;99.90;;;;;;5034185;28;20279;-77
2021/03/06 01:11:46;;;;;;;13.00;6.10;;;0.40;99.90;;;;;;5034110;28;20287;-77
2021/03/06 01:14:13;;;;;;;15.67;6.17;;;0.40;99.90;;;;;;5033861;28;20202;-74
2021/03/06 01:16:39;;;;;;;17.47;6.13;;;0.40;99.90;;;;;;5034186;28;20229;-77
2021/03/06 01:19:06;;;;;;;14.90;6.33;;;0.40;99.90;;;;;;5033951;28;20231;-74
2021/03/06 01:21:33;;;;;;;15.37;5.83;;;0.50;99.90;;;;;;5033700;28;20201;-74
2021/03/06 01:23:59;;;;;;;13.47;5.37;;;0.60;99.90;;;;;;5033792;28;20236;-77
2021/03/06 01:26:26;;;;;;;13.27;5.47;;;0.50;99.90;;;;;;5033552;28;20200;-77
2021/03/06 01:28:52;;;;;;;10.70;6.10;;;0.50;99.90;;;;;;5033652;28;20227;-77
2021/03/06 01:31:18;;;;;;;12.77;6.53;;;0.40;99.90;;;;;;5033571;28;20638;-76
2021/03/06 01:33:45;;;;;;;18.30;5.87;;;0.40;99.90;;;;;;5033708;28;20549;-74
2021/03/06 01:36:12;;;;;;;19.60;7.37;;;0.50;99.90;;;;;;5033226;28;20223;-77
2021/03/06 01:38:38;;;;;;;14.43;6.77;;;0.50;99.90;;;;;;5033798;28;20251;-74
2021/03/06 01:41:05;;;;;;;13.17;6.83;;;0.20;99.90;;;;;;5033346;28;20312;-75
2021/03/06 01:43:31;;;;;;;16.30;8.10;;;0.10;99.90;;;;;;5033572;28;20203;-75
2021/03/06 01:45:57;;;;;;;14.57;7.50;;;0.00;99.90;;;;;;5033671;28;20193;-75
2021/03/06 01:48:24;;;;;;;14.53;8.43;;;0.00;99.90;;;;;;5033712;28;20226;-74
2021/03/06 01:50:52;;;;;;;21.27;7.70;;;-0.10;99.90;;;;;;5033438;28;20199;-77
2021/03/06 01:53:19;;;;;;;17.70;7.63;;;0.10;99.90;;;;;;5033642;28;20259;-75
2021/03/06 01:55:47;;;;;;;19.20;7.27;;;0.20;99.90;;;;;;5033225;28;20220;-74
2021/03/06 01:58:15;;;;;;;15.90;7.63;;;0.20;99.90;;;;;;5033292;28;20220;-76
2021/03/06 02:00:42;;;;;;;15.77;7.40;;;0.30;99.90;;;;;;5033588;28;20285;-75
2021/03/06 02:03:08;;;;;;;18.00;7.47;;;0.30;99.90;;;;;;5033324;28;20197;-75
2021/03/06 02:05:35;;;;;;;16.63;7.07;;;0.30;99.90;;;;;;5032925;28;20230;-76
2021/03/06 02:08:03;;;;;;;16.27;7.20;;;0.30;99.90;;;;;;5033079;28;20207;-75
2021/03/06 02:10:33;;;;;;;16.87;7.03;;;0.30;99.90;;;;;;5032915;28;20577;-76
2021/03/06 02:13:13;;;;;;;13.50;8.00;;;0.20;99.90;;;;;;5033452;28;20285;-77
2021/03/06 02:15:50;;;;;;;16.93;7.77;;;0.10;99.90;;;;;;5033142;28;20238;-74
2021/03/06 02:18:22;;;;;;;17.60;8.63;;;0.10;99.90;;;;;;5033170;28;20289;-75
2021/03/06 02:20:52;;;;;;;19.70;8.57;;;0.00;99.90;;;;;;5032736;28;20214;-77
2021/03/06 02:24:01;;;;;;;20.17;7.37;;;-0.10;99.90;;;;;;5033339;28;20208;-76
2021/03/06 02:26:39;;;;;;;16.13;6.83;;;0.00;99.90;;;;;;5033132;28;20197;-76
2021/03/06 02:29:32;;;;;;;11.97;6.47;;;0.00;99.90;;;;;;5032939;28;20665;-76
2021/03/06 02:31:59;;;;;;;14.93;6.63;;;-0.10;99.90;;;;;;5033124;28;20295;-77
2021/03/06 02:34:30;;;;;;;17.27;6.63;;;-0.20;99.90;;;;;;5033037;28;20624;-77
2021/03/06 02:37:00;;;;;;;13.73;6.93;;;-0.30;99.90;;;;;;5032918;28;20652;-76
2021/03/06 02:39:28;;;;;;;16.23;6.67;;;-0.30;99.90;;;;;;5032937;28;20201;-76
2021/03/06 02:41:57;;;;;;;20.60;6.97;;;-0.20;99.90;;;;;;5032692;28;20206;-76
2021/03/06 02:44:26;;;;;;;12.10;6.27;;;-0.20;99.90;;;;;;5032417;28;20250;-76
2021/03/06 02:46:54;;;;;;;12.13;7.10;;;-0.10;99.90;;;;;;5032677;28;20255;-76
2021/03/06 02:49:20;;;;;;;16.20;7.33;;;0.00;99.90;;;;;;5032638;28;20201;-76
2021/03/06 02:51:48;;;;;;;21.90;8.13;;;0.00;99.90;;;;;;5032754;28;20197;-76
2021/03/06 02:54:15;;;;;;;16.60;8.03;;;0.00;99.90;;;;;;5032487;28;20203;-76
2021/03/06 02:56:41;;;;;;;16.60;8.60;;;-0.10;99.90;;;;;;5032706;28;20257;-77
2021/03/06 02:59:19;;;;;;;20.03;9.60;;;-0.30;99.90;;;;;;5032684;28;20550;-76
2021/03/06 03:02:01;;;;;;;19.00;9.03;;;-0.50;99.90;;;;;;5032782;28;20200;-76
2021/03/06 03:04:35;;;;;;;19.37;9.03;;;-0.40;99.90;;;;;;5032901;28;20293;-76
2021/03/06 03:07:08;;;;;;;17.87;8.57;;;-0.30;99.90;;;;;;5032853;28;20205;-76
2021/03/06 03:09:40;;;;;;;19.33;8.77;;;-0.20;99.90;;;;;;5032738;28;20288;-76
2021/03/06 03:12:12;;;;;;;26.53;9.40;;;-0.10;99.90;;;;;;5032703;28;20312;-76
2021/03/06 03:14:47;;;;;;;18.30;8.87;;;-0.20;99.90;;;;;;5032545;28;20661;-76
2021/03/06 03:17:20;;;;;;;22.97;8.97;;;-0.20;99.90;;;;;;5035410;28;20572;-76
2021/03/06 03:19:56;;;;;;;21.03;9.70;;;-0.40;99.90;;;;;;5036557;28;20208;-76
2021/03/06 03:22:25;;;;;;;20.43;9.30;;;-0.40;99.90;;;;;;5036248;28;20204;-76
2021/03/06 03:24:53;;;;;;;17.63;8.40;;;-0.60;99.90;;;;;;5035954;28;20207;-76
2021/03/06 03:27:21;;;;;;;15.93;8.33;;;-0.60;99.90;;;;;;5036185;28;20211;-77
2021/03/06 03:29:49;;;;;;;14.57;7.20;;;-0.50;99.90;;;;;;5035964;28;20198;-76
2021/03/06 03:32:18;;;;;;;15.27;8.10;;;-0.50;99.90;;;;;;5035978;28;20197;-76
2021/03/06 03:34:45;;;;;;;19.20;7.70;;;-0.60;99.90;;;;;;5035960;28;20201;-77
2021/03/06 03:37:12;;;;;;;20.57;7.87;;;-0.60;99.90;;;;;;5035761;28;20630;-77
2021/03/06 03:39:39;;;;;;;14.77;7.33;;;-0.60;99.90;;;;;;5035718;28;20680;-76
2021/03/06 03:42:07;;;;;;;17.37;7.93;;;-0.60;99.90;;;;;;5035602;28;20204;-76
2021/03/06 03:44:34;;;;;;;16.53;7.30;;;-0.70;99.90;;;;;;5035560;28;20202;-76
2021/03/06 03:47:00;;;;;;;16.67;8.30;;;-0.50;99.90;;;;;;5035779;28;20267;-77
2021/03/06 03:49:28;;;;;;;19.73;8.37;;;-0.40;99.90;;;;;;5035547;28;20203;-76
2021/03/06 03:51:55;;;;;;;18.30;8.90;;;-0.40;99.90;;;;;;5035713;28;20292;-76
2021/03/06 03:54:22;;;;;;;20.60;9.97;;;-0.40;99.90;;;;;;5035856;28;20203;-76
2021/03/06 03:56:49;;;;;;;20.10;9.20;;;-0.40;99.90;;;;;;5035468;28;20220;-76
2021/03/06 03:59:15;;;;;;;18.63;9.07;;;-0.50;99.90;;;;;;5035464;28;20210;-76
2021/03/06 04:01:43;;;;;;;18.67;8.87;;;-0.50;99.90;;;;;;5035434;28;20198;-76
2021/03/06 04:04:16;;;;;;;16.57;9.07;;;-0.40;99.90;;;;;;5035482;28;20224;-77
2021/03/06 04:06:43;;;;;;;20.80;9.10;;;-0.50;99.90;;;;;;5035258;28;20212;-76
2021/03/06 04:09:09;;;;;;;19.97;9.40;;;-0.60;99.90;;;;;;5035473;28;20207;-76
2021/03/06 04:11:36;;;;;;;15.73;8.60;;;-0.60;99.90;;;;;;5035277;28;20289;-76
2021/03/06 04:14:02;;;;;;;18.80;9.27;;;-0.50;99.90;;;;;;5035311;28;20205;-74
2021/03/06 04:16:28;;;;;;;20.93;9.20;;;-0.40;99.90;;;;;;5035064;28;20245;-77
2021/03/06 04:18:55;;;;;;;17.40;8.97;;;-0.40;99.90;;;;;;5035302;28;20588;-77
2021/03/06 04:21:21;;;;;;;16.07;9.97;;;-0.60;99.90;;;;;;5034966;28;20197;-76
2021/03/06 04:23:48;;;;;;;20.07;9.10;;;-0.70;99.90;;;;;;5034846;28;20198;-75
2021/03/06 04:26:14;;;;;;;20.60;9.33;;;-0.50;99.90;;;;;;5034851;28;20236;-75
2021/03/06 04:28:41;;;;;;;23.03;9.20;;;-0.60;99.90;;;;;;5034693;28;20260;-75
2021/03/06 04:31:07;;;;;;;27.13;9.03;;;-0.60;99.90;;;;;;5034859;28;20200;-75
2021/03/06 04:33:34;;;;;;;14.67;9.37;;;-0.60;99.90;;;;;;5034797;28;20202;-76
2021/03/06 04:36:01;;;;;;;20.97;9.03;;;-0.70;99.90;;;;;;5034922;28;20220;-76
2021/03/06 04:38:27;;;;;;;24.33;9.50;;;-0.60;99.90;;;;;;5033936;28;20300;-75
2021/03/06 04:40:54;;;;;;;22.87;9.50;;;-0.60;99.90;;;;;;5034880;28;20204;-75
2021/03/06 04:43:21;;;;;;;21.00;9.63;;;-0.70;99.90;;;;;;5034849;28;20205;-75
2021/03/06 04:45:47;;;;;;;16.67;9.07;;;-0.90;99.90;;;;;;5034323;28;20293;-75
2021/03/06 04:48:13;;;;;;;19.20;9.33;;;-0.80;99.90;;;;;;5034376;28;20201;-77
2021/03/06 04:50:40;;;;;;;20.23;9.77;;;-0.70;99.90;;;;;;5034436;28;20247;-76
2021/03/06 04:53:06;;;;;;;18.20;9.50;;;-0.80;99.90;;;;;;5034321;28;20259;-77
2021/03/06 04:55:33;;;;;;;20.87;10.30;;;-0.80;99.90;;;;;;5034396;28;20193;-77
2021/03/06 04:58:00;;;;;;;21.87;10.17;;;-0.80;99.90;;;;;;5034372;28;20530;-75
2021/03/06 05:00:26;;;;;;;18.80;9.23;;;-1.00;99.90;;;;;;5033907;28;20299;-76
2021/03/06 05:02:53;;;;;;;20.50;9.90;;;-1.10;99.90;;;;;;5034144;28;20288;-77
2021/03/06 05:05:19;;;;;;;25.87;9.90;;;-1.20;99.90;;;;;;5034088;28;20223;-76
2021/03/06 05:07:45;;;;;;;18.20;10.10;;;-1.20;99.90;;;;;;5033895;28;20208;-76
2021/03/06 05:10:12;;;;;;;21.23;9.30;;;-1.30;99.90;;;;;;5034006;28;20687;-76
2021/03/06 05:12:39;;;;;;;22.27;9.60;;;-1.20;99.90;;;;;;5034261;28;20200;-76
2021/03/06 05:15:08;;;;;;;16.03;10.23;;;-1.30;99.90;;;;;;5034023;28;20202;-76
2021/03/06 05:17:35;;;;;;;22.43;9.77;;;-1.30;99.90;;;;;;5033795;28;20229;-75
2021/03/06 05:20:02;;;;;;;22.30;10.17;;;-1.20;99.90;;;;;;5033871;28;20194;-75
2021/03/06 05:22:28;;;;;;;30.33;15.33;;;-1.20;99.90;;;;;;5032865;28;21124;-77
2021/03/06 05:24:54;;;;;;;24.40;11.37;;;-1.50;99.90;;;;;;5033981;28;20279;-77
2021/03/06 05:27:21;;;;;;;20.63;9.53;;;-1.20;99.90;;;;;;5033748;28;20202;-77
2021/03/06 05:29:47;;;;;;;17.23;10.17;;;-1.30;99.90;;;;;;5033824;28;20289;-76
2021/03/06 05:32:14;;;;;;;21.90;10.17;;;-1.20;99.90;;;;;;5033572;28;20670;-75
2021/03/06 05:34:41;;;;;;;24.73;11.17;;;-1.30;99.90;;;;;;5033913;28;20228;-76
2021/03/06 05:37:08;;;;;;;23.03;11.17;;;-1.40;99.90;;;;;;5033539;28;20715;-77
2021/03/06 05:39:34;;;;;;;22.27;10.03;;;-1.50;99.90;;;;;;5033040;28;20279;-76
2021/03/06 05:42:01;;;;;;;24.03;10.60;;;-1.70;99.90;;;;;;5033748;28;20203;-75
2021/03/06 05:44:28;;;;;;;29.30;10.43;;;-1.60;99.90;;;;;;5033367;28;20260;-75
2021/03/06 05:46:57;;;;;;;15.67;9.97;;;-1.60;99.90;;;;;;5033421;28;20605;-75
2021/03/06 05:49:24;;;;;;;18.70;10.17;;;-1.50;99.90;;;;;;5033440;28;20213;-77
2021/03/06 05:51:52;;;;;;;21.73;9.97;;;-1.30;99.90;;;;;;5033409;28;20615;-75
2021/03/06 05:54:21;;;;;;;25.40;9.80;;;-1.10;99.90;;;;;;5033412;28;20199;-76
2021/03/06 05:56:49;;;;;;;21.33;10.50;;;-1.00;99.90;;;;;;5033095;28;20720;-75
2021/03/06 05:59:16;;;;;;;18.90;10.27;;;-1.10;99.90;;;;;;5033209;28;20209;-77
2021/03/06 06:01:43;;;;;;;21.30;10.00;;;-1.30;99.90;;;;;;5033336;28;20282;-77
2021/03/06 06:04:10;;;;;;;19.50;10.57;;;-1.40;99.90;;;;;;5033126;28;20273;-77
2021/03/06 06:06:39;;;;;;;20.87;10.50;;;-1.50;99.90;;;;;;5033135;28;20696;-76
2021/03/06 06:09:08;;;;;;;24.97;10.70;;;-1.50;99.90;;;;;;5032986;28;20301;-75
2021/03/06 06:11:35;;;;;;;17.90;10.27;;;-1.40;99.90;;;;;;5033932;28;20201;-75
2021/03/06 06:14:03;;;;;;;26.05;15.20;;;-1.20;99.90;;;;;;5031916;28;20922;-75
2021/03/06 06:16:30;;;;;;;22.27;11.97;;;-1.20;99.90;;;;;;5032911;28;20257;-76
2021/03/06 06:18:57;;;;;;;17.33;11.17;;;-1.40;99.90;;;;;;5033101;28;20638;-75
2021/03/06 06:21:43;;;;;;;28.17;10.87;;;-1.50;99.90;;;;;;5033269;28;20292;-75
2021/03/06 06:24:10;;;;;;;20.23;11.33;;;-1.50;99.90;;;;;;5032792;28;20209;-75
2021/03/06 06:26:38;;;;;;;17.07;9.87;;;-1.50;99.90;;;;;;5032844;28;20195;-75
2021/03/06 06:29:05;;;;;;;16.90;9.20;;;-1.50;99.90;;;;;;5032722;28;20688;-75
2021/03/06 06:31:32;;;;;;;14.77;8.47;;;-1.40;99.90;;;;;;5033322;28;20292;-75
2021/03/06 06:33:58;;;;;;;20.93;9.43;;;-1.30;99.90;;;;;;5032895;28;20665;-75
2021/03/06 06:36:32;;;;;;;19.20;9.67;;;-1.10;99.90;;;;;;5032913;28;20335;-75
2021/03/06 06:39:00;;;;;;;18.63;9.47;;;-0.80;99.90;;;;;;5033113;28;20199;-77
2021/03/06 06:41:48;;;;;;;21.23;10.23;;;-0.60;99.90;;;;;;5032921;28;20276;-77
2021/03/06 06:44:14;;;;;;;21.67;10.77;;;-0.70;99.90;;;;;;5032897;28;20536;-75
2021/03/06 06:46:41;;;;;;;23.63;10.87;;;-0.70;99.90;;;;;;5032850;28;20288;-75
2021/03/06 06:49:07;;;;;;;26.60;9.60;;;-0.60;99.90;;;;;;5032808;28;20292;-75
2021/03/06 06:51:34;;;;;;;27.53;10.33;;;-0.50;99.90;;;;;;5034555;28;20205;-75
2021/03/06 06:54:19;;;;;;;17.77;10.50;;;-0.70;99.90;;;;;;5036769;28;20669;-75
2021/03/06 06:56:45;;;;;;;22.80;10.23;;;-1.10;99.90;;;;;;5036654;28;20228;-75
2021/03/06 06:59:11;;;;;;;27.23;10.23;;;-1.20;99.90;;;;;;5036426;28;20318;-75
2021/03/06 07:01:38;;;;;;;26.27;10.43;;;-1.30;99.90;;;;;;5037124;28;20206;-76
2021/03/06 07:04:06;;;;;;;20.90;11.10;;;-1.20;99.90;;;;;;5036688;28;20203;-75
2021/03/06 07:06:33;;;;;;;22.57;11.30;;;-0.90;99.90;;;;;;5036739;28;20200;-75
2021/03/06 07:09:13;;;;;;;21.43;11.00;;;-0.80;99.90;;;;;;5036913;28;20236;-75
2021/03/06 07:11:42;;;;;;;26.83;11.30;;;-0.70;99.90;;;;;;5036366;28;20662;-77
2021/03/06 07:14:08;;;;;;;21.63;10.17;;;-0.50;99.90;;;;;;5036369;28;20198;-78
2021/03/06 07:16:57;;;;;;;22.50;11.27;;;-0.30;99.90;;;;;;5036185;28;20225;-75
2021/03/06 07:19:25;;;;;;;23.87;11.50;;;-0.20;99.90;;;;;;5036673;28;20713;-75
2021/03/06 07:21:52;;;;;;;22.30;11.23;;;-0.20;99.90;;;;;;5036034;28;20211;-75
2021/03/06 07:24:18;;;;;;;22.70;10.20;;;-0.20;99.90;;;;;;5036176;28;20287;-75
2021/03/06 07:26:51;;;;;;;22.00;11.77;;;-0.40;99.90;;;;;;5035862;28;20548;-75
2021/03/06 07:29:17;;;;;;;23.03;11.10;;;-0.60;99.90;;;;;;5035988;28;20568;-75
2021/03/06 07:31:47;;;;;;;23.50;11.67;;;-0.70;99.90;;;;;;5035747;28;20193;-75
2021/03/06 07:34:14;;;;;;;25.50;11.87;;;-0.50;99.90;;;;;;5035989;28;20200;-75
2021/03/06 07:36:43;;;;;;;22.40;12.23;;;-0.50;99.90;;;;;;5035756;28;20230;-75
2021/03/06 07:39:13;;;;;;;27.73;12.87;;;-0.30;99.90;;;;;;5035749;28;20198;-75
2021/03/06 07:41:42;;;;;;;23.13;12.80;;;-0.20;99.90;;;;;;5036026;28;20240;-75
2021/03/06 07:44:13;;;;;;;25.73;12.53;;;-0.10;99.90;;;;;;5035678;28;20230;-75
2021/03/06 07:46:40;;;;;;;31.87;12.43;;;0.00;99.90;;;;;;5035983;28;20721;-75
2021/03/06 07:49:12;;;;;;;21.53;11.80;;;0.10;99.90;;;;;;5035885;28;20238;-75
2021/03/06 07:51:43;;;;;;;28.27;12.60;;;0.20;99.90;;;;;;5035743;28;20206;-75
2021/03/06 07:54:12;;;;;;;33.70;12.83;;;0.20;99.90;;;;;;5035543;28;20197;-74
2021/03/06 07:56:38;;;;;;;24.33;13.23;;;0.40;99.90;;;;;;5035501;28;20693;-75
2021/03/06 07:59:05;;;;;;;24.03;12.57;;;0.40;99.90;;;;;;5036059;28;20201;-75
2021/03/06 08:01:33;;;;;;;21.37;11.87;;;0.50;99.90;;;;;;5035155;28;20560;-75
2021/03/06 08:04:00;;;;;;;21.87;12.03;;;0.60;99.90;;;;;;5035709;28;20337;-77
2021/03/06 08:06:28;;;;;;;20.80;11.67;;;0.70;99.90;;;;;;5035480;28;20279;-75
2021/03/06 08:09:06;;;;;;;22.67;11.43;;;0.80;99.90;;;;;;5035221;28;20241;-77
2021/03/06 08:11:40;;;;;;;19.50;11.20;;;0.90;99.90;;;;;;5035155;28;20215;-75
2021/03/06 08:14:27;;;;;;;22.80;12.27;;;1.00;99.90;;;;;;5035385;28;20205;-75
2021/03/06 08:16:54;;;;;;;20.73;11.13;;;1.10;99.90;;;;;;5035315;28;20225;-75
2021/03/06 08:19:26;;;;;;;19.73;11.07;;;1.10;99.90;;;;;;5035406;28;20240;-75
2021/03/06 08:21:54;;;;;;;24.13;11.73;;;1.10;99.90;;;;;;5035088;28;20204;-74
2021/03/06 08:24:38;;;;;;;18.20;10.97;;;1.10;99.90;;;;;;5035459;28;20292;-75
2021/03/06 08:27:18;;;;;;;17.83;9.63;;;1.10;99.90;;;;;;5035227;28;20209;-77
2021/03/06 08:30:00;;;;;;;23.20;10.37;;;1.20;99.90;;;;;;5035281;28;20693;-75
2021/03/06 08:32:34;;;;;;;22.60;10.27;;;1.30;99.90;;;;;;5033252;28;20207;-76
2021/03/06 08:35:17;;;;;;;22.10;10.17;;;1.40;99.90;;;;;;5034751;28;20678;-75
2021/03/06 08:37:44;;;;;;;16.63;10.07;;;1.40;99.90;;;;;;5035081;28;20228;-75
2021/03/06 08:40:16;;;;;;;17.10;10.77;;;1.40;99.90;;;;;;5034684;28;20204;-75
2021/03/06 08:42:44;;;;;;;21.60;11.50;;;1.30;99.90;;;;;;5035082;28;20667;-75
2021/03/06 08:45:15;;;;;;;26.70;12.40;;;1.30;99.90;;;;;;5035411;28;20684;-75
2021/03/06 08:47:44;;;;;;;21.60;11.57;;;1.30;99.90;;;;;;5034895;28;20274;-75
2021/03/06 08:50:13;;;;;;;23.27;11.53;;;1.50;99.90;;;;;;5034920;28;20214;-75
2021/03/06 08:52:40;;;;;;;17.80;10.03;;;1.60;99.90;;;;;;5034386;28;20198;-75
2021/03/06 08:55:09;;;;;;;18.23;10.13;;;1.70;99.90;;;;;;5034294;28;20221;-75
2021/03/06 08:57:37;;;;;;;19.37;11.00;;;1.80;99.90;;;;;;5034592;28;20230;-75
2021/03/06 09:00:20;;;;;;;22.73;11.37;;;2.00;99.90;;;;;;5034511;28;20238;-75
2021/03/06 09:02:47;;;;;;;25.73;12.27;;;2.20;99.90;;;;;;5034526;28;20198;-77
2021/03/06 09:05:15;;;;;;;21.83;11.40;;;2.30;99.90;;;;;;5034564;28;20193;-75
2021/03/06 09:07:45;;;;;;;20.83;10.93;;;2.40;99.90;;;;;;5034021;28;20199;-75
2021/03/06 09:10:27;;;;;;;17.10;10.20;;;2.30;99.90;;;;;;5034270;28;20206;-75
2021/03/06 09:12:55;;;;;;;14.97;9.63;;;2.40;99.90;;;;;;5033835;28;20202;-75
2021/03/06 09:15:30;;;;;;;17.43;9.30;;;2.50;99.90;;;;;;5033676;28;20202;-75
2021/03/06 09:17:58;;;;;;;15.00;7.53;;;2.60;99.90;;;;;;5034057;28;20236;-75
2021/03/06 09:20:25;;;;;;;13.77;7.30;;;2.60;99.90;;;;;;5034715;28;20659;-75
2021/03/06 09:22:51;;;;;;;13.83;6.87;;;2.70;99.90;;;;;;5034077;28;20212;-75
2021/03/06 09:25:29;;;;;;;13.47;7.43;;;2.70;99.90;;;;;;5034560;28;20269;-75
2021/03/06 09:27:55;;;;;;;16.97;7.63;;;2.70;99.90;;;;;;5034299;28;20201;-75
2021/03/06 09:30:24;;;;;;;12.00;6.43;;;2.80;99.90;;;;;;5033987;28;20202;-75
2021/03/06 09:32:50;;;;;;;10.90;5.57;;;3.10;99.90;;;;;;5033934;28;20207;-75
2021/03/06 09:35:19;;;;;;;9.70;5.43;;;3.10;99.90;;;;;;5033662;28;20285;-75
2021/03/06 09:37:46;;;;;;;13.33;5.80;;;3.20;99.90;;;;;;5033675;28;20239;-75
2021/03/06 09:40:21;;;;;;;9.63;5.73;;;3.30;99.90;;;;;;5033981;28;20208;-75
2021/03/06 09:42:51;;;;;;;16.37;6.00;;;3.40;99.90;;;;;;5033378;28;20665;-75
2021/03/06 09:45:18;;;;;;;14.23;6.97;;;3.50;99.90;;;;;;5033554;28;20202;-75
2021/03/06 09:47:45;;;;;;;9.73;6.07;;;3.40;99.90;;;;;;5033653;28;20201;-75
2021/03/06 09:50:13;;;;;;;13.47;6.13;;;3.50;99.90;;;;;;5033425;28;20202;-75
2021/03/06 09:52:40;;;;;;;11.13;5.87;;;3.60;99.90;;;;;;5033628;28;20194;-75
2021/03/06 09:55:16;;;;;;;9.63;5.83;;;3.60;99.90;;;;;;5033800;28;20290;-75
2021/03/06 09:57:42;;;;;;;11.20;5.53;;;3.70;99.90;;;;;;5033999;28;20618;-75
2021/03/06 10:00:24;;;;;;;9.67;5.03;;;4.00;99.90;;;;;;5033621;28;20742;-75
2021/03/06 10:02:51;;;;;;;9.10;4.60;;;4.00;99.90;;;;;;5033862;28;20233;-75
2021/03/06 10:05:21;;;;;;;10.93;4.73;;;4.10;99.90;;;;;;5033458;28;20221;-75
2021/03/06 10:07:51;;;;;;;9.07;4.63;;;4.20;99.90;;;;;;5033561;28;20206;-75
2021/03/06 10:10:18;;;;;;;10.13;5.30;;;4.30;99.90;;;;;;5034036;28;20217;-75
2021/03/06 10:12:46;;;;;;;9.13;4.50;;;4.40;99.90;;;;;;5034066;28;20245;-75
2021/03/06 10:15:15;;;;;;;6.13;4.00;;;4.60;99.90;;;;;;5034034;28;20230;-75
2021/03/06 10:17:42;;;;;;;5.57;3.73;;;4.70;99.90;;;;;;5016633;28;20209;-75
2021/03/06 10:20:09;;;;;;;7.83;4.43;;;4.80;99.90;;;;;;5033027;28;20723;-75
2021/03/06 10:22:47;;;;;;;7.33;3.80;;;4.90;99.90;;;;;;5033729;28;20229;-75
2021/03/06 10:25:23;;;;;;;9.53;3.73;;;5.20;99.90;;;;;;5035269;28;20238;-75
2021/03/06 10:27:50;;;;;;;5.13;3.10;;;6.70;99.90;;;;;;5038089;28;20686;-75
2021/03/06 10:30:18;;;;;;;7.07;3.90;;;8.20;99.90;;;;;;5038090;28;20201;-75
2021/03/06 10:32:47;;;;;;;6.30;3.30;;;9.20;99.90;;;;;;5037911;28;20207;-75
2021/03/06 10:35:33;;;;;;;6.57;3.37;;;9.60;99.90;;;;;;5037883;28;20240;-75
2021/03/06 10:38:00;;;;;;;7.37;2.90;;;9.70;99.90;;;;;;5037191;28;20596;-74
2021/03/06 10:40:49;;;;;;;4.03;2.40;;;9.30;99.90;;;;;;5037724;28;20202;-75
2021/03/06 10:43:29;;;;;;;3.63;2.60;;;9.40;99.90;;;;;;5037624;28;20598;-75
2021/03/06 10:46:07;;;;;;;4.63;2.30;;;10.10;99.90;;;;;;5037760;28;20204;-75
2021/03/06 10:48:34;;;;;;;5.87;2.73;;;10.20;99.90;;;;;;5037639;28;20217;-74
2021/03/06 10:51:00;;;;;;;8.10;2.90;;;9.70;99.90;;;;;;5037705;28;20196;-74
2021/03/06 10:53:28;;;;;;;5.17;3.00;;;9.40;99.90;;;;;;5037550;28;20251;-74
2021/03/06 10:55:55;;;;;;;4.43;3.53;;;9.30;99.90;;;;;;5037494;28;20667;-74
2021/03/06 10:58:41;;;;;;;8.87;3.30;;;9.30;99.90;;;;;;5036646;28;20229;-74
2021/03/06 11:01:09;;;;;;;5.93;3.57;;;8.90;99.90;;;;;;5036878;28;20206;-74
2021/03/06 11:03:42;;;;;;;8.33;4.63;;;8.60;99.90;;;;;;5037478;28;20194;-74
2021/03/06 11:06:09;;;;;;;10.90;6.13;;;8.00;99.90;;;;;;5037478;28;20233;-74
2021/03/06 11:08:35;;;;;;;15.20;5.43;;;8.10;99.90;;;;;;5037130;28;20290;-75
2021/03/06 11:11:03;;;;;;;8.67;5.33;;;8.80;99.90;;;;;;5037567;28;20286;-75
2021/03/06 11:13:42;;;;;;;9.70;5.23;;;8.90;99.90;;;;;;5036508;28;20207;-74
2021/03/06 11:16:08;;;;;;;7.23;4.70;;;9.40;99.90;;;;;;5036031;28;20671;-75
2021/03/06 11:18:37;;;;;;;7.13;4.40;;;9.70;99.90;;;;;;5036236;28;20293;-75
2021/03/06 11:21:04;;;;;;;7.13;3.87;;;10.00;99.90;;;;;;5036411;28;20209;-74
2021/03/06 11:23:30;;;;;;;7.17;4.10;;;9.90;99.90;;;;;;5040065;28;20237;-73
2021/03/06 11:25:57;;;;;;;8.70;4.33;;;9.20;99.90;;;;;;5037673;28;20755;-74
2021/03/06 11:28:24;;;;;;;8.13;4.60;;;9.40;99.90;;;;;;5036095;28;20194;-75
2021/03/06 11:30:50;;;;;;;5.43;3.77;;;9.30;99.90;;;;;;5036149;28;20876;-74
2021/03/06 11:33:18;;;;;;;7.73;4.50;;;9.40;99.90;;;;;;5035874;28;20213;-74
2021/03/06 11:35:45;;;;;;;7.47;3.87;;;9.40;99.90;;;;;;5035853;28;20644;-75
2021/03/06 11:38:13;;;;;;;7.90;4.00;;;8.90;99.90;;;;;;5035021;28;20286;-74
2021/03/06 11:40:42;;;;;;;8.47;4.33;;;8.80;99.90;;;;;;5035960;28;20193;-74
2021/03/06 11:43:08;;;;;;;5.67;3.33;;;9.20;99.90;;;;;;5035926;28;20628;-74
2021/03/06 11:45:36;;;;;;;7.97;3.47;;;9.60;99.90;;;;;;5035671;28;20245;-75
2021/03/06 11:48:03;;;;;;;5.33;3.40;;;10.00;99.90;;;;;;5036085;28;20301;-74
2021/03/06 11:50:32;;;;;;;4.00;3.10;;;9.90;99.90;;;;;;5035445;28;20209;-75
2021/03/06 11:52:59;;;;;;;7.13;3.90;;;9.60;99.90;;;;;;5035750;28;20228;-75
2021/03/06 11:55:25;;;;;;;10.13;3.40;;;9.70;99.90;;;;;;5035695;28;20283;-74
2021/03/06 11:57:52;;;;;;;8.70;3.10;;;9.70;99.90;;;;;;5035325;28;20230;-74
2021/03/06 12:00:21;;;;;;;5.13;2.90;;;9.60;99.90;;;;;;5035610;28;20306;-74
2021/03/06 12:02:48;;;;;;;3.57;2.73;;;9.80;99.90;;;;;;5035346;28;20195;-75
2021/03/06 12:05:15;;;;;;;8.00;3.30;;;9.80;99.90;;;;;;5035515;28;20293;-74
2021/03/06 12:07:43;;;;;;;4.40;2.77;;;9.40;99.90;;;;;;5035470;28;20283;-76
2021/03/06 12:10:11;;;;;;;3.60;2.70;;;9.00;99.90;;;;;;5035360;28;20307;-75
2021/03/06 12:12:37;;;;;;;6.97;3.13;;;8.70;99.90;;;;;;5035194;28;20202;-75
2021/03/06 12:15:06;;;;;;;5.67;2.87;;;8.60;99.90;;;;;;5035172;28;20198;-75
2021/03/06 12:17:32;;;;;;;3.90;2.43;;;8.70;99.90;;;;;;5035888;28;20229;-75
2021/03/06 12:20:00;;;;;;;6.50;3.00;;;8.90;99.90;;;;;;5036043;28;20322;-75
2021/03/06 12:22:26;;;;;;;8.37;3.33;;;9.00;99.90;;;;;;5035936;28;20230;-75
2021/03/06 12:24:53;;;;;;;5.53;3.30;;;8.90;99.90;;;;;;5035607;28;20229;-75
2021/03/06 12:27:19;;;;;;;5.67;3.10;;;8.60;99.90;;;;;;5035401;28;20203;-74
2021/03/06 12:29:45;;;;;;;6.70;3.00;;;8.60;99.90;;;;;;5035010;28;20202;-75
2021/03/06 12:32:12;;;;;;;7.63;3.37;;;8.60;99.90;;;;;;5035441;28;20205;-74
2021/03/06 12:34:38;;;;;;;5.13;3.00;;;8.70;99.90;;;;;;5035455;28;20663;-74
2021/03/06 12:37:06;;;;;;;4.30;2.80;;;8.60;99.90;;;;;;5035573;28;20290;-75
2021/03/06 12:39:33;;;;;;;6.00;3.13;;;8.60;99.90;;;;;;5035525;28;20689;-74
2021/03/06 12:41:59;;;;;;;6.57;3.40;;;9.00;99.90;;;;;;5035645;28;20206;-75
2021/03/06 12:44:26;;;;;;;6.20;2.90;;;9.10;99.90;;;;;;5034554;28;20702;-74
2021/03/06 12:46:52;;;;;;;9.00;3.20;;;8.70;99.90;;;;;;5035207;28;20205;-75
2021/03/06 12:49:19;;;;;;;5.17;3.03;;;8.80;99.90;;;;;;5035473;28;20199;-75
2021/03/06 12:51:45;;;;;;;4.63;2.63;;;8.90;99.90;;;;;;5035283;28;20205;-75